TAF Text Data
IDs:
Format:
Raw Decoded Include METAR

Data at: 0805 UTC 27 Feb 2020

KBNA 270546Z 2706/2806 31012G19KT P6SM VCSH SCT035 OVC050
  FM271200 31007KT P6SM FEW250
  FM271800 28010G18KT P6SM SKC
  FM280000 23006KT P6SM OVC100